Pagina principale
METAR-TAF:

METAR-TAF

Aeroporti :

Fourchambault

Nevers, Francia

latitudine: 47-00N, longitudine: 003-06E, altezza: 180 m

Osservazione

Il bollettino è stato emesso 11 ore e 58 minuti fa, alle 18:00 UTC
Vento 1 kt da ovest/nord-ovest
Temperature 6°C
Umidità 87%
Pressione 1009 hPa
Visibilità 10 km o più
Cielo coperto ad un'altezza di 4400 ft

METAR: LFQG 171800Z AUTO 29001KT 9999 OVC044 06/04 Q1009

Ora: 06:58 (05:58 UTC)


TAF: mancante

Osservazioni e previsioni meteorologiche di più di 4000 aeroporti (messaggi METAR e TAF).

Le stazioni disponibili sono rappresentate dai dischi gialli e rossi sulla carta.

Puntare il mouse per vedere il nome della stazione.

Clicca sopra per visualizzare le osservazioni e previsioni meteorologiche.

Per cambiare la mappa : fare clic sui pulsanti verdi con una croce nera per ingrandire, il pulsante verde con un trattino per diminuire, o sulla freccia verde per le mappe adiacenti.


METAR-TAF: